createdAt,value
2018-07-19T00:00:39.884Z,15.36
2018-07-19T00:03:38.078Z,15.36
2018-07-19T00:06:36.097Z,15.37
2018-07-19T00:09:34.403Z,15.21
2018-07-19T00:12:32.326Z,15.00
2018-07-19T00:15:30.415Z,15.05
2018-07-19T00:18:31.830Z,14.87
2018-07-19T00:21:29.111Z,14.63
2018-07-19T00:24:26.267Z,14.66
2018-07-19T00:27:24.328Z,14.82
2018-07-19T00:30:22.031Z,14.76
2018-07-19T00:33:19.794Z,14.72
2018-07-19T00:36:18.121Z,14.73
2018-07-19T00:39:15.871Z,14.77
2018-07-19T00:42:14.267Z,14.75
2018-07-19T00:45:11.422Z,14.62
2018-07-19T00:48:09.347Z,14.38
2018-07-19T00:51:06.489Z,14.28
2018-07-19T00:54:04.549Z,14.35
2018-07-19T00:57:02.551Z,14.43
2018-07-19T00:59:59.694Z,14.46
2018-07-19T01:02:56.868Z,14.31
2018-07-19T01:05:54.090Z,14.20
2018-07-19T01:08:51.314Z,14.08
2018-07-19T01:11:48.758Z,14.19
2018-07-19T01:14:45.992Z,14.06
2018-07-19T01:17:43.696Z,13.96
2018-07-19T01:20:41.615Z,14.05
2018-07-19T01:23:39.598Z,14.07
2018-07-19T01:26:36.879Z,14.03
2018-07-19T01:29:34.161Z,14.02
2018-07-19T01:32:32.165Z,14.09
2018-07-19T01:35:29.319Z,13.91
2018-07-19T01:38:27.221Z,13.91
2018-07-19T01:41:39.740Z,13.92
2018-07-19T01:44:37.043Z,13.92
2018-07-19T01:47:34.291Z,13.92
2018-07-19T01:50:32.118Z,13.89
2018-07-19T01:53:29.973Z,13.66
2018-07-19T01:56:27.043Z,13.51
2018-07-19T01:59:24.427Z,13.57
2018-07-19T02:02:22.668Z,13.48
2018-07-19T02:05:20.723Z,13.38
2018-07-19T02:08:18.574Z,13.24
2018-07-19T02:11:16.652Z,13.24
2018-07-19T02:14:13.962Z,13.42
2018-07-19T02:17:11.651Z,13.39
2018-07-19T02:20:09.602Z,13.46
2018-07-19T02:23:07.617Z,13.38
2018-07-19T02:26:05.761Z,13.27
2018-07-19T02:29:03.198Z,13.23
2018-07-19T02:32:00.741Z,13.33
2018-07-19T02:34:58.841Z,13.28
2018-07-19T02:37:56.675Z,13.25
2018-07-19T02:40:54.015Z,13.17
2018-07-19T02:43:52.099Z,13.15
2018-07-19T02:46:50.530Z,12.99
2018-07-19T02:49:48.303Z,12.93
2018-07-19T02:52:46.526Z,12.95
2018-07-19T02:55:44.391Z,12.92
2018-07-19T02:58:42.313Z,12.81
2018-07-19T03:01:40.638Z,12.75
2018-07-19T03:04:37.742Z,12.83
2018-07-19T03:07:35.734Z,12.88
2018-07-19T03:10:32.883Z,12.88
2018-07-19T03:13:31.158Z,12.80
2018-07-19T03:16:29.240Z,13.04
2018-07-19T03:19:26.738Z,13.13
2018-07-19T03:22:24.039Z,13.11
2018-07-19T03:25:21.242Z,13.02
2018-07-19T03:28:18.567Z,12.69
2018-07-19T03:31:15.965Z,12.70
2018-07-19T03:34:14.002Z,12.66
2018-07-19T03:37:12.218Z,12.81
2018-07-19T03:40:09.502Z,12.98
2018-07-19T03:43:06.692Z,13.15
2018-07-19T03:46:04.189Z,13.33
2018-07-19T03:49:01.334Z,13.62
2018-07-19T03:51:58.756Z,14.01
2018-07-19T03:54:56.126Z,14.32
2018-07-19T03:57:53.184Z,14.42
2018-07-19T04:00:51.249Z,15.05
2018-07-19T04:03:48.675Z,15.17
2018-07-19T04:06:46.540Z,15.35
2018-07-19T04:09:45.470Z,15.56
2018-07-19T04:12:43.186Z,15.70
2018-07-19T04:15:41.031Z,16.10
2018-07-19T04:18:38.516Z,16.63
2018-07-19T04:21:35.747Z,17.12
2018-07-19T04:24:32.906Z,17.72
2018-07-19T04:27:30.145Z,17.78
2018-07-19T04:30:27.897Z,17.77
2018-07-19T04:33:25.225Z,18.87
2018-07-19T04:36:22.558Z,18.49
2018-07-19T04:39:21.574Z,18.81
2018-07-19T04:42:18.709Z,19.72
2018-07-19T04:45:15.954Z,19.98
2018-07-19T04:48:13.963Z,19.65
2018-07-19T04:51:12.270Z,20.36
2018-07-19T04:54:10.547Z,21.39
2018-07-19T04:57:07.688Z,22.18
2018-07-19T05:00:05.722Z,22.76
2018-07-19T05:03:03.927Z,23.23
2018-07-19T05:06:01.807Z,23.18
2018-07-19T05:08:58.946Z,22.86
2018-07-19T05:11:56.118Z,22.77
2018-07-19T05:14:54.174Z,23.25
2018-07-19T05:17:51.499Z,23.76
2018-07-19T05:20:49.925Z,25.14
2018-07-19T05:23:48.003Z,25.37
2018-07-19T05:26:45.272Z,25.69
2018-07-19T05:29:42.815Z,25.95
2018-07-19T05:32:40.107Z,26.00
2018-07-19T05:35:37.269Z,25.92
2018-07-19T05:38:35.070Z,26.61
2018-07-19T05:41:33.099Z,26.81
2018-07-19T05:44:30.262Z,26.86
2018-07-19T05:47:27.692Z,26.59
2018-07-19T05:50:24.863Z,26.70
2018-07-19T05:53:22.734Z,27.47
2018-07-19T05:56:21.022Z,28.15
2018-07-19T05:59:18.966Z,28.23
2018-07-19T06:02:16.602Z,28.19
2018-07-19T06:05:14.667Z,27.77
2018-07-19T06:08:11.995Z,28.63
2018-07-19T06:11:10.131Z,29.51
2018-07-19T06:14:07.635Z,29.57
2018-07-19T06:17:05.223Z,29.87
2018-07-19T06:20:02.651Z,30.29
2018-07-19T06:23:00.972Z,30.39
2018-07-19T06:25:59.274Z,31.18
2018-07-19T06:28:57.419Z,31.57
2018-07-19T06:31:55.360Z,30.32
2018-07-19T06:34:53.518Z,30.57
2018-07-19T06:37:51.641Z,31.42
2018-07-19T06:40:49.675Z,31.48
2018-07-19T06:43:47.201Z,31.47
2018-07-19T06:46:44.978Z,32.16
2018-07-19T06:49:43.211Z,31.72
2018-07-19T06:52:40.686Z,31.77
2018-07-19T06:55:38.659Z,30.47
2018-07-19T06:58:36.842Z,30.45
2018-07-19T07:01:33.947Z,30.72
2018-07-19T07:04:31.331Z,30.43
2018-07-19T07:07:28.569Z,30.11
2018-07-19T07:10:25.678Z,30.03
2018-07-19T07:13:23.010Z,30.08
2018-07-19T07:16:20.185Z,29.34
2018-07-19T07:19:17.361Z,29.35
2018-07-19T07:22:14.843Z,29.46
2018-07-19T07:25:12.815Z,29.25
2018-07-19T07:28:10.376Z,30.04
2018-07-19T07:31:07.512Z,31.09
2018-07-19T07:34:05.045Z,31.44
2018-07-19T07:37:03.020Z,31.29
2018-07-19T07:40:00.045Z,30.53
2018-07-19T07:45:55.510Z,30.55
2018-07-19T07:48:52.758Z,30.88
2018-07-19T07:51:50.610Z,30.08
2018-07-19T07:54:48.757Z,29.09
2018-07-19T07:57:46.829Z,29.79
2018-07-19T08:00:43.971Z,30.11
2018-07-19T08:03:42.119Z,30.19
2018-07-19T08:06:39.651Z,30.51
2018-07-19T08:09:37.695Z,30.80
2018-07-19T08:12:35.747Z,32.11
2018-07-19T08:15:33.884Z,31.68
2018-07-19T08:18:31.216Z,30.89
2018-07-19T08:21:28.513Z,29.15
2018-07-19T08:24:26.089Z,29.90
2018-07-19T08:27:23.674Z,30.97
2018-07-19T08:30:20.894Z,30.24
2018-07-19T08:33:19.071Z,30.43
2018-07-19T08:36:17.374Z,30.88
2018-07-19T08:39:14.458Z,32.22
2018-07-19T08:42:11.724Z,31.22
2018-07-19T08:45:09.275Z,33.05
2018-07-19T08:48:07.320Z,33.96
2018-07-19T08:51:04.912Z,33.10
2018-07-19T08:54:02.930Z,33.80
2018-07-19T08:57:00.750Z,35.02
2018-07-19T08:59:58.777Z,34.18
2018-07-19T09:02:57.754Z,36.02
2018-07-19T09:05:56.477Z,34.93
2018-07-19T09:08:53.607Z,33.99
2018-07-19T09:11:52.784Z,33.29
2018-07-19T09:14:50.851Z,33.84
2018-07-19T09:17:48.699Z,34.49
2018-07-19T09:20:46.111Z,34.56
2018-07-19T09:23:43.513Z,35.40
2018-07-19T09:26:40.998Z,35.19
2018-07-19T09:29:40.592Z,35.61
2018-07-19T09:32:38.645Z,34.91
2018-07-19T09:35:36.149Z,33.92
2018-07-19T09:38:33.536Z,33.67
2018-07-19T09:41:30.686Z,34.62
2018-07-19T09:44:27.942Z,34.53
2018-07-19T09:47:25.238Z,34.37
2018-07-19T09:50:23.198Z,34.16
2018-07-19T09:53:20.437Z,33.84
2018-07-19T09:56:17.869Z,33.16
2018-07-19T09:59:15.676Z,32.91
2018-07-19T10:02:12.786Z,32.94
2018-07-19T10:05:10.753Z,32.93
2018-07-19T10:08:07.925Z,32.78
2018-07-19T10:11:05.382Z,33.72
2018-07-19T10:14:03.146Z,34.36
2018-07-19T10:17:00.654Z,34.55
2018-07-19T10:19:58.665Z,33.35
2018-07-19T10:22:56.471Z,34.28
2018-07-19T10:25:54.439Z,34.01
2018-07-19T10:28:51.608Z,34.73
2018-07-19T10:31:49.457Z,32.79
2018-07-19T10:34:47.403Z,32.68
2018-07-19T10:37:45.724Z,31.83
2018-07-19T10:40:43.859Z,32.84
2018-07-19T10:43:41.734Z,34.13
2018-07-19T10:46:38.958Z,33.81
2018-07-19T10:49:36.181Z,34.35
2018-07-19T10:52:34.573Z,34.23
2018-07-19T10:55:31.711Z,34.13
2018-07-19T10:58:29.942Z,33.04
2018-07-19T11:01:27.077Z,32.93
2018-07-19T11:04:25.309Z,32.79
2018-07-19T11:07:23.409Z,31.17
2018-07-19T11:10:21.374Z,31.37
2018-07-19T11:13:19.567Z,32.37
2018-07-19T11:16:16.905Z,32.69
2018-07-19T11:19:15.008Z,31.48
2018-07-19T11:22:12.308Z,31.19
2018-07-19T11:25:09.689Z,30.34
2018-07-19T11:28:07.750Z,29.28
2018-07-19T11:31:05.794Z,31.59
2018-07-19T11:34:03.644Z,31.61
2018-07-19T11:37:00.694Z,30.84
2018-07-19T11:39:57.946Z,30.17
2018-07-19T11:42:56.586Z,29.68
2018-07-19T11:45:54.316Z,29.39
2018-07-19T11:48:51.654Z,28.74
2018-07-19T11:51:49.880Z,27.95
2018-07-19T11:54:47.956Z,27.97
2018-07-19T11:57:45.175Z,28.18
2018-07-19T12:00:42.579Z,28.05
2018-07-19T12:03:40.798Z,27.66
2018-07-19T12:06:39.114Z,27.43
2018-07-19T12:09:37.236Z,27.76
2018-07-19T12:12:34.637Z,27.65
2018-07-19T12:15:32.808Z,27.63
2018-07-19T12:18:30.362Z,26.96
2018-07-19T12:21:28.495Z,27.57
2018-07-19T12:24:27.244Z,27.91
2018-07-19T12:27:25.833Z,27.72
2018-07-19T12:30:23.303Z,27.79
2018-07-19T12:33:20.803Z,27.85
2018-07-19T12:36:18.241Z,27.51
2018-07-19T12:39:18.635Z,27.79
2018-07-19T12:42:17.733Z,27.71
2018-07-19T12:45:15.059Z,27.29
2018-07-19T12:48:12.335Z,27.66
2018-07-19T12:51:09.646Z,28.01
2018-07-19T12:54:07.691Z,28.39
2018-07-19T12:57:04.800Z,28.07
2018-07-19T13:00:01.919Z,27.53
2018-07-19T13:02:58.991Z,27.75
2018-07-19T13:05:55.927Z,28.05
2018-07-19T13:08:53.191Z,28.28
2018-07-19T13:11:50.441Z,28.25
2018-07-19T13:14:49.309Z,28.08
2018-07-19T13:17:46.679Z,28.27
2018-07-19T13:20:43.956Z,28.37
2018-07-19T13:23:41.886Z,28.07
2018-07-19T13:26:39.163Z,27.83
2018-07-19T13:29:36.798Z,28.15
2018-07-19T13:32:34.869Z,27.98
2018-07-19T13:38:05.926Z,28.03
2018-07-19T13:41:03.885Z,27.99
2018-07-19T13:44:01.668Z,28.12
2018-07-19T13:46:59.539Z,27.68
2018-07-19T13:49:57.277Z,27.42
2018-07-19T13:53:07.141Z,27.19
2018-07-19T13:56:04.517Z,27.31
2018-07-19T13:59:01.499Z,27.20
2018-07-19T14:01:59.106Z,26.95
2018-07-19T14:04:56.412Z,26.85
2018-07-19T14:07:53.538Z,27.05
2018-07-19T14:10:51.593Z,27.21
2018-07-19T14:13:49.556Z,27.39
2018-07-19T14:16:47.337Z,27.54
2018-07-19T14:19:45.484Z,27.82
2018-07-19T14:22:43.640Z,27.82
2018-07-19T14:25:41.540Z,27.62
2018-07-19T14:28:39.538Z,27.83
2018-07-19T14:31:37.125Z,27.51
2018-07-19T14:34:35.070Z,27.21
2018-07-19T14:37:33.138Z,27.76
2018-07-19T14:40:30.833Z,27.90
2018-07-19T14:43:28.881Z,28.00
2018-07-19T14:46:26.983Z,28.38
2018-07-19T14:49:25.165Z,27.89
2018-07-19T14:52:23.310Z,27.80
2018-07-19T14:55:21.109Z,27.65
2018-07-19T14:58:19.061Z,27.08
2018-07-19T15:01:17.048Z,26.84
2018-07-19T15:04:14.879Z,26.63
2018-07-19T15:07:12.960Z,26.38
2018-07-19T15:10:10.973Z,26.39
2018-07-19T15:13:09.098Z,26.27
2018-07-19T15:16:07.006Z,26.40
2018-07-19T15:19:04.907Z,26.35
2018-07-19T15:22:02.979Z,26.44
2018-07-19T15:25:00.242Z,26.41
2018-07-19T15:27:58.123Z,26.25
2018-07-19T15:30:56.154Z,26.17
2018-07-19T15:33:54.150Z,26.35
2018-07-19T15:36:52.102Z,26.35
2018-07-19T15:39:50.122Z,26.33
2018-07-19T15:42:47.855Z,26.52
2018-07-19T15:45:45.884Z,26.39
2018-07-19T15:48:44.204Z,26.39
2018-07-19T15:51:41.967Z,26.49
2018-07-19T15:54:39.660Z,26.70
2018-07-19T15:57:37.762Z,26.69
2018-07-19T16:00:35.603Z,26.69
2018-07-19T16:03:33.605Z,26.66
2018-07-19T16:06:31.426Z,26.54
2018-07-19T16:09:30.527Z,26.40
2018-07-19T16:12:28.413Z,26.32
2018-07-19T16:15:26.214Z,26.38
2018-07-19T16:18:24.235Z,26.29
2018-07-19T16:21:22.360Z,26.52
2018-07-19T16:24:20.476Z,26.71
2018-07-19T16:27:18.666Z,26.78
2018-07-19T16:30:16.464Z,26.78
2018-07-19T16:33:14.445Z,26.76
2018-07-19T16:36:12.375Z,26.94
2018-07-19T16:39:10.138Z,26.94
2018-07-19T16:42:07.842Z,26.81
2018-07-19T16:45:05.848Z,26.73
2018-07-19T16:48:03.886Z,26.61
2018-07-19T16:51:01.718Z,26.56
2018-07-19T16:53:59.672Z,26.53
2018-07-19T16:56:57.833Z,26.49
2018-07-19T16:59:55.815Z,26.53
2018-07-19T17:02:53.721Z,26.49
2018-07-19T17:05:51.625Z,26.43
2018-07-19T17:08:49.546Z,26.29
2018-07-19T17:11:47.191Z,26.25
2018-07-19T17:14:45.278Z,26.22
2018-07-19T17:17:43.208Z,26.10
2018-07-19T17:20:40.928Z,26.12
2018-07-19T17:23:38.796Z,26.19
2018-07-19T17:26:36.539Z,26.14
2018-07-19T17:29:34.324Z,26.01
2018-07-19T17:32:33.400Z,25.99
2018-07-19T17:35:31.367Z,25.80
2018-07-19T17:38:29.158Z,25.76
2018-07-19T17:41:26.968Z,25.68
2018-07-19T17:44:25.059Z,25.57
2018-07-19T17:47:23.001Z,25.48
2018-07-19T17:50:20.868Z,25.49
2018-07-19T17:53:19.066Z,25.41
2018-07-19T17:56:17.302Z,25.32
2018-07-19T17:59:15.275Z,25.27
2018-07-19T18:02:13.091Z,25.14
2018-07-19T18:05:11.368Z,25.00
2018-07-19T18:08:08.953Z,24.97
2018-07-19T18:11:06.820Z,24.94
2018-07-19T18:14:04.790Z,24.91
2018-07-19T18:17:02.610Z,24.76
2018-07-19T18:20:00.431Z,24.55
2018-07-19T18:22:58.331Z,24.27
2018-07-19T18:25:56.167Z,24.34
2018-07-19T18:28:54.154Z,24.28
2018-07-19T18:31:52.325Z,24.22
2018-07-19T18:34:50.354Z,24.16
2018-07-19T18:37:48.316Z,24.08
2018-07-19T18:40:46.219Z,23.95
2018-07-19T18:43:44.154Z,23.89
2018-07-19T18:46:42.185Z,23.79
2018-07-19T18:49:39.915Z,23.68
2018-07-19T18:52:37.710Z,23.65
2018-07-19T18:55:35.485Z,23.53
2018-07-19T18:58:33.318Z,23.39
2018-07-19T19:01:31.545Z,23.36
2018-07-19T19:04:29.193Z,23.22
2018-07-19T19:07:27.170Z,23.18
2018-07-19T19:10:25.098Z,23.15
2018-07-19T19:13:23.135Z,23.08
2018-07-19T19:16:21.066Z,22.94
2018-07-19T19:19:19.189Z,22.79
2018-07-19T19:22:17.376Z,22.51
2018-07-19T19:25:15.346Z,22.28
2018-07-19T19:28:13.531Z,21.86
2018-07-19T19:31:11.279Z,21.46
2018-07-19T19:34:09.230Z,21.19
2018-07-19T19:37:07.115Z,21.10
2018-07-19T19:40:05.187Z,20.95
2018-07-19T19:43:03.313Z,20.94
2018-07-19T19:46:01.061Z,20.98
2018-07-19T19:48:59.063Z,20.95
2018-07-19T19:51:57.174Z,20.77
2018-07-19T19:54:55.153Z,20.50
2018-07-19T19:57:52.960Z,20.30
2018-07-19T20:00:51.005Z,20.27
2018-07-19T20:03:48.903Z,20.29
2018-07-19T20:06:46.843Z,20.29
2018-07-19T20:09:44.487Z,20.18
2018-07-19T20:12:42.599Z,19.78
2018-07-19T20:15:40.346Z,19.69
2018-07-19T20:18:38.449Z,19.79
2018-07-19T20:21:36.460Z,19.73
2018-07-19T20:24:34.547Z,19.52
2018-07-19T20:27:32.627Z,19.45
2018-07-19T20:30:30.788Z,19.27
2018-07-19T20:33:28.790Z,19.33
2018-07-19T20:36:26.938Z,19.30
2018-07-19T20:39:24.911Z,19.08
2018-07-19T20:42:22.623Z,19.23
2018-07-19T20:45:20.709Z,19.30
2018-07-19T20:48:18.648Z,19.10
2018-07-19T20:51:16.646Z,18.95
2018-07-19T20:54:14.511Z,18.76
2018-07-19T20:57:12.506Z,18.61
2018-07-19T21:00:10.340Z,18.66
2018-07-19T21:03:08.306Z,18.66
2018-07-19T21:06:06.111Z,18.83
2018-07-19T21:09:04.303Z,18.97
2018-07-19T21:12:02.286Z,18.90
2018-07-19T21:15:00.331Z,18.64
2018-07-19T21:17:58.217Z,18.63
2018-07-19T21:20:55.972Z,18.67
2018-07-19T21:23:54.111Z,18.66
2018-07-19T21:26:52.288Z,18.46
2018-07-19T21:29:50.238Z,18.28
2018-07-19T21:32:48.170Z,18.02
2018-07-19T21:35:46.277Z,18.11
2018-07-19T21:38:44.225Z,18.10
2018-07-19T21:41:42.411Z,18.04
2018-07-19T21:44:40.319Z,17.97
2018-07-19T21:47:38.468Z,17.85
2018-07-19T21:50:36.566Z,17.68
2018-07-19T21:53:34.554Z,17.75
2018-07-19T21:56:32.593Z,17.83
2018-07-19T21:59:30.746Z,17.61
2018-07-19T22:02:28.938Z,17.42
2018-07-19T22:05:26.984Z,17.39
2018-07-19T22:08:25.920Z,17.56
2018-07-19T22:11:23.864Z,17.51
2018-07-19T22:14:21.154Z,17.44
2018-07-19T22:17:19.090Z,17.13
2018-07-19T22:20:16.872Z,16.94
2018-07-19T22:23:14.647Z,16.94
2018-07-19T22:26:13.743Z,17.09
2018-07-19T22:29:11.640Z,17.22
2018-07-19T22:32:09.449Z,17.15
2018-07-19T22:35:08.314Z,17.22
2018-07-19T22:38:06.180Z,16.88
2018-07-19T22:41:04.035Z,16.83
2018-07-19T22:44:02.063Z,16.50
2018-07-19T22:46:59.924Z,16.33
2018-07-19T22:49:57.575Z,16.27
2018-07-19T22:52:55.379Z,16.54
2018-07-19T22:55:54.312Z,16.76
2018-07-19T22:58:52.082Z,16.82
2018-07-19T23:01:50.090Z,16.83
2018-07-19T23:04:47.895Z,16.88
2018-07-19T23:07:45.797Z,16.70
2018-07-19T23:10:43.558Z,16.37
2018-07-19T23:13:41.387Z,16.17
2018-07-19T23:16:39.201Z,16.05
2018-07-19T23:19:37.327Z,16.19
2018-07-19T23:22:35.466Z,16.36
2018-07-19T23:25:33.487Z,16.50
2018-07-19T23:28:31.423Z,16.49
2018-07-19T23:31:28.515Z,16.42
2018-07-19T23:34:26.736Z,16.10
2018-07-19T23:37:29.850Z,16.00
2018-07-19T23:40:38.086Z,16.00
2018-07-19T23:43:39.134Z,16.01
2018-07-19T23:46:42.153Z,16.12
2018-07-19T23:49:40.195Z,16.19
2018-07-19T23:52:38.150Z,15.97
2018-07-19T23:55:36.312Z,15.77
2018-07-19T23:58:34.307Z,15.59
